sensor_id;sensor_type;location;lat;lon;timestamp;P1;durP1;ratioP1;P2;durP2;ratioP2
39140;SDS011;24875;48.436;10.298;2022-09-09T00:01:54;1.90;;;1.20;;
39140;SDS011;24875;48.436;10.298;2022-09-09T00:04:27;3.60;;;1.42;;
39140;SDS011;24875;48.436;10.298;2022-09-09T00:07:03;2.67;;;1.42;;
39140;SDS011;24875;48.436;10.298;2022-09-09T00:09:36;5.20;;;1.35;;
39140;SDS011;24875;48.436;10.298;2022-09-09T00:12:10;3.88;;;1.60;;
39140;SDS011;24875;48.436;10.298;2022-09-09T00:14:41;4.47;;;1.27;;
39140;SDS011;24875;48.436;10.298;2022-09-09T00:17:17;4.63;;;1.25;;
39140;SDS011;24875;48.436;10.298;2022-09-09T00:19:53;3.10;;;1.10;;
39140;SDS011;24875;48.436;10.298;2022-09-09T00:22:25;3.58;;;1.83;;
39140;SDS011;24875;48.436;10.298;2022-09-09T00:24:54;2.90;;;1.52;;
39140;SDS011;24875;48.436;10.298;2022-09-09T00:27:25;2.85;;;1.58;;
39140;SDS011;24875;48.436;10.298;2022-09-09T00:29:57;3.17;;;1.70;;
39140;SDS011;24875;48.436;10.298;2022-09-09T00:32:29;4.65;;;1.83;;
39140;SDS011;24875;48.436;10.298;2022-09-09T00:34:58;2.50;;;1.92;;
39140;SDS011;24875;48.436;10.298;2022-09-09T00:37:28;4.93;;;1.63;;
39140;SDS011;24875;48.436;10.298;2022-09-09T00:39:57;4.60;;;1.83;;
39140;SDS011;24875;48.436;10.298;2022-09-09T00:42:31;4.60;;;2.35;;
39140;SDS011;24875;48.436;10.298;2022-09-09T00:45:10;5.22;;;1.90;;
39140;SDS011;24875;48.436;10.298;2022-09-09T00:47:53;3.10;;;1.88;;
39140;SDS011;24875;48.436;10.298;2022-09-09T00:50:34;6.45;;;2.13;;
39140;SDS011;24875;48.436;10.298;2022-09-09T00:53:13;3.03;;;1.48;;
39140;SDS011;24875;48.436;10.298;2022-09-09T00:55:52;3.25;;;1.45;;
39140;SDS011;24875;48.436;10.298;2022-09-09T00:58:22;1.65;;;1.25;;
39140;SDS011;24875;48.436;10.298;2022-09-09T01:00:50;3.25;;;1.20;;
39140;SDS011;24875;48.436;10.298;2022-09-09T01:03:25;7.55;;;1.42;;
39140;SDS011;24875;48.436;10.298;2022-09-09T01:06:11;1.70;;;1.15;;
39140;SDS011;24875;48.436;10.298;2022-09-09T01:11:40;2.47;;;1.35;;
39140;SDS011;24875;48.436;10.298;2022-09-09T01:14:18;1.75;;;1.17;;
39140;SDS011;24875;48.436;10.298;2022-09-09T01:16:56;5.88;;;1.75;;
39140;SDS011;24875;48.436;10.298;2022-09-09T01:19:32;3.05;;;1.50;;
39140;SDS011;24875;48.436;10.298;2022-09-09T01:22:12;3.72;;;1.70;;
39140;SDS011;24875;48.436;10.298;2022-09-09T01:24:51;4.43;;;1.77;;
39140;SDS011;24875;48.436;10.298;2022-09-09T01:27:36;3.50;;;1.88;;
39140;SDS011;24875;48.436;10.298;2022-09-09T01:30:07;2.75;;;1.63;;
39140;SDS011;24875;48.436;10.298;2022-09-09T01:32:40;4.43;;;1.83;;
39140;SDS011;24875;48.436;10.298;2022-09-09T01:35:09;2.03;;;1.60;;
39140;SDS011;24875;48.436;10.298;2022-09-09T01:37:38;2.97;;;1.45;;
39140;SDS011;24875;48.436;10.298;2022-09-09T01:40:06;4.18;;;1.20;;
39140;SDS011;24875;48.436;10.298;2022-09-09T01:42:33;1.50;;;1.40;;
39140;SDS011;24875;48.436;10.298;2022-09-09T01:45:01;5.10;;;1.67;;
39140;SDS011;24875;48.436;10.298;2022-09-09T01:47:28;2.42;;;1.55;;
39140;SDS011;24875;48.436;10.298;2022-09-09T01:49:54;3.20;;;1.67;;
39140;SDS011;24875;48.436;10.298;2022-09-09T01:52:21;9.88;;;1.60;;
39140;SDS011;24875;48.436;10.298;2022-09-09T01:54:47;5.50;;;1.70;;
39140;SDS011;24875;48.436;10.298;2022-09-09T01:57:15;2.70;;;1.73;;
39140;SDS011;24875;48.436;10.298;2022-09-09T01:59:53;7.82;;;1.85;;
39140;SDS011;24875;48.436;10.298;2022-09-09T02:02:32;5.57;;;1.33;;
39140;SDS011;24875;48.436;10.298;2022-09-09T02:05:04;2.70;;;1.70;;
39140;SDS011;24875;48.436;10.298;2022-09-09T02:07:38;4.28;;;1.88;;
39140;SDS011;24875;48.436;10.298;2022-09-09T02:10:10;3.47;;;1.55;;
39140;SDS011;24875;48.436;10.298;2022-09-09T02:12:39;2.42;;;1.40;;
39140;SDS011;24875;48.436;10.298;2022-09-09T02:15:13;5.00;;;1.73;;
39140;SDS011;24875;48.436;10.298;2022-09-09T02:17:48;3.80;;;1.58;;
39140;SDS011;24875;48.436;10.298;2022-09-09T02:20:18;3.00;;;1.75;;
39140;SDS011;24875;48.436;10.298;2022-09-09T02:22:46;2.47;;;1.63;;
39140;SDS011;24875;48.436;10.298;2022-09-09T02:25:17;7.07;;;1.70;;
39140;SDS011;24875;48.436;10.298;2022-09-09T02:27:45;2.70;;;1.30;;
39140;SDS011;24875;48.436;10.298;2022-09-09T02:30:16;2.35;;;1.30;;
39140;SDS011;24875;48.436;10.298;2022-09-09T02:32:44;3.45;;;1.55;;
39140;SDS011;24875;48.436;10.298;2022-09-09T02:35:13;3.38;;;1.50;;
39140;SDS011;24875;48.436;10.298;2022-09-09T02:37:43;2.13;;;1.13;;
39140;SDS011;24875;48.436;10.298;2022-09-09T02:40:12;2.25;;;1.60;;
39140;SDS011;24875;48.436;10.298;2022-09-09T02:42:41;2.55;;;1.10;;
39140;SDS011;24875;48.436;10.298;2022-09-09T02:45:09;2.30;;;1.52;;
39140;SDS011;24875;48.436;10.298;2022-09-09T02:47:40;1.33;;;1.13;;
39140;SDS011;24875;48.436;10.298;2022-09-09T02:50:15;5.15;;;1.20;;
39140;SDS011;24875;48.436;10.298;2022-09-09T02:52:55;1.50;;;1.38;;
39140;SDS011;24875;48.436;10.298;2022-09-09T02:55:35;1.23;;;1.00;;
39140;SDS011;24875;48.436;10.298;2022-09-09T02:58:06;1.55;;;1.27;;
39140;SDS011;24875;48.436;10.298;2022-09-09T03:00:36;2.50;;;1.25;;
39140;SDS011;24875;48.436;10.298;2022-09-09T03:03:05;2.67;;;1.40;;
39140;SDS011;24875;48.436;10.298;2022-09-09T03:05:33;3.30;;;1.60;;
39140;SDS011;24875;48.436;10.298;2022-09-09T03:08:00;4.65;;;1.60;;
39140;SDS011;24875;48.436;10.298;2022-09-09T03:10:28;1.58;;;1.38;;
39140;SDS011;24875;48.436;10.298;2022-09-09T03:12:54;4.45;;;1.15;;
39140;SDS011;24875;48.436;10.298;2022-09-09T03:15:21;2.45;;;1.30;;
39140;SDS011;24875;48.436;10.298;2022-09-09T03:17:48;3.42;;;1.60;;
39140;SDS011;24875;48.436;10.298;2022-09-09T03:20:16;2.90;;;2.28;;
39140;SDS011;24875;48.436;10.298;2022-09-09T03:22:42;2.08;;;1.48;;
39140;SDS011;24875;48.436;10.298;2022-09-09T03:25:10;2.10;;;1.60;;
39140;SDS011;24875;48.436;10.298;2022-09-09T03:27:36;3.60;;;1.60;;
39140;SDS011;24875;48.436;10.298;2022-09-09T03:30:03;2.38;;;1.77;;
39140;SDS011;24875;48.436;10.298;2022-09-09T03:32:30;2.53;;;1.88;;
39140;SDS011;24875;48.436;10.298;2022-09-09T03:34:57;3.80;;;1.70;;
39140;SDS011;24875;48.436;10.298;2022-09-09T03:37:25;2.58;;;1.70;;
39140;SDS011;24875;48.436;10.298;2022-09-09T03:39:51;5.10;;;1.73;;
39140;SDS011;24875;48.436;10.298;2022-09-09T03:42:19;2.22;;;1.55;;
39140;SDS011;24875;48.436;10.298;2022-09-09T03:44:46;3.42;;;1.85;;
39140;SDS011;24875;48.436;10.298;2022-09-09T03:47:15;2.60;;;1.90;;
39140;SDS011;24875;48.436;10.298;2022-09-09T03:49:42;4.15;;;2.15;;
39140;SDS011;24875;48.436;10.298;2022-09-09T03:52:08;4.63;;;2.35;;
39140;SDS011;24875;48.436;10.298;2022-09-09T03:54:36;3.58;;;2.20;;
39140;SDS011;24875;48.436;10.298;2022-09-09T03:57:04;4.82;;;1.98;;
39140;SDS011;24875;48.436;10.298;2022-09-09T03:59:31;9.07;;;2.00;;
39140;SDS011;24875;48.436;10.298;2022-09-09T04:01:57;3.85;;;1.80;;
39140;SDS011;24875;48.436;10.298;2022-09-09T04:04:24;4.22;;;1.90;;
39140;SDS011;24875;48.436;10.298;2022-09-09T04:06:51;5.18;;;2.05;;
39140;SDS011;24875;48.436;10.298;2022-09-09T04:09:17;3.58;;;2.05;;
39140;SDS011;24875;48.436;10.298;2022-09-09T04:11:45;2.38;;;1.85;;
39140;SDS011;24875;48.436;10.298;2022-09-09T04:14:12;3.65;;;2.22;;
39140;SDS011;24875;48.436;10.298;2022-09-09T04:16:38;4.30;;;2.10;;
39140;SDS011;24875;48.436;10.298;2022-09-09T04:19:09;3.95;;;2.10;;
39140;SDS011;24875;48.436;10.298;2022-09-09T04:21:37;8.55;;;2.90;;
39140;SDS011;24875;48.436;10.298;2022-09-09T04:24:05;5.15;;;2.75;;
39140;SDS011;24875;48.436;10.298;2022-09-09T04:26:32;8.07;;;2.80;;
39140;SDS011;24875;48.436;10.298;2022-09-09T04:29:00;4.95;;;2.70;;
39140;SDS011;24875;48.436;10.298;2022-09-09T04:31:27;6.57;;;2.88;;
39140;SDS011;24875;48.436;10.298;2022-09-09T04:33:54;4.53;;;2.70;;
39140;SDS011;24875;48.436;10.298;2022-09-09T04:36:20;7.20;;;3.28;;
39140;SDS011;24875;48.436;10.298;2022-09-09T04:38:47;4.50;;;2.75;;
39140;SDS011;24875;48.436;10.298;2022-09-09T04:41:14;10.63;;;2.67;;
39140;SDS011;24875;48.436;10.298;2022-09-09T04:43:42;5.55;;;2.53;;
39140;SDS011;24875;48.436;10.298;2022-09-09T04:46:10;5.45;;;2.83;;
39140;SDS011;24875;48.436;10.298;2022-09-09T04:48:37;8.85;;;3.00;;
39140;SDS011;24875;48.436;10.298;2022-09-09T04:51:04;6.05;;;3.13;;
39140;SDS011;24875;48.436;10.298;2022-09-09T04:53:32;5.03;;;3.00;;
39140;SDS011;24875;48.436;10.298;2022-09-09T04:56:03;4.95;;;2.92;;
39140;SDS011;24875;48.436;10.298;2022-09-09T04:58:30;4.53;;;2.53;;
39140;SDS011;24875;48.436;10.298;2022-09-09T05:01:02;5.03;;;3.17;;
39140;SDS011;24875;48.436;10.298;2022-09-09T05:03:31;7.30;;;2.88;;
39140;SDS011;24875;48.436;10.298;2022-09-09T05:06:02;5.93;;;3.22;;
39140;SDS011;24875;48.436;10.298;2022-09-09T05:08:29;9.10;;;3.22;;
39140;SDS011;24875;48.436;10.298;2022-09-09T05:10:56;5.88;;;3.10;;
39140;SDS011;24875;48.436;10.298;2022-09-09T05:13:23;4.85;;;3.05;;
39140;SDS011;24875;48.436;10.298;2022-09-09T05:15:51;9.75;;;3.45;;
39140;SDS011;24875;48.436;10.298;2022-09-09T05:18:18;6.30;;;3.08;;
39140;SDS011;24875;48.436;10.298;2022-09-09T05:20:46;8.77;;;3.72;;
39140;SDS011;24875;48.436;10.298;2022-09-09T05:23:12;7.70;;;3.92;;
39140;SDS011;24875;48.436;10.298;2022-09-09T05:25:39;8.25;;;2.85;;
39140;SDS011;24875;48.436;10.298;2022-09-09T05:28:06;8.07;;;2.92;;
39140;SDS011;24875;48.436;10.298;2022-09-09T05:30:33;7.07;;;3.53;;
39140;SDS011;24875;48.436;10.298;2022-09-09T05:33:00;6.93;;;2.75;;
39140;SDS011;24875;48.436;10.298;2022-09-09T05:35:26;6.45;;;2.88;;
39140;SDS011;24875;48.436;10.298;2022-09-09T05:37:54;10.38;;;3.30;;
39140;SDS011;24875;48.436;10.298;2022-09-09T05:40:26;8.50;;;3.22;;
39140;SDS011;24875;48.436;10.298;2022-09-09T05:42:53;6.47;;;3.47;;
39140;SDS011;24875;48.436;10.298;2022-09-09T05:45:19;7.88;;;3.40;;
39140;SDS011;24875;48.436;10.298;2022-09-09T05:47:50;9.90;;;3.55;;
39140;SDS011;24875;48.436;10.298;2022-09-09T05:50:18;7.03;;;3.22;;
39140;SDS011;24875;48.436;10.298;2022-09-09T05:52:44;6.35;;;2.70;;
39140;SDS011;24875;48.436;10.298;2022-09-09T05:55:12;7.85;;;3.40;;
39140;SDS011;24875;48.436;10.298;2022-09-09T05:57:39;6.90;;;3.15;;
39140;SDS011;24875;48.436;10.298;2022-09-09T06:00:06;7.03;;;3.45;;
39140;SDS011;24875;48.436;10.298;2022-09-09T06:02:33;9.00;;;3.13;;
39140;SDS011;24875;48.436;10.298;2022-09-09T06:05:02;8.40;;;3.88;;
39140;SDS011;24875;48.436;10.298;2022-09-09T06:07:28;8.18;;;3.33;;
39140;SDS011;24875;48.436;10.298;2022-09-09T06:09:55;7.95;;;3.35;;
39140;SDS011;24875;48.436;10.298;2022-09-09T06:12:22;6.20;;;3.38;;
39140;SDS011;24875;48.436;10.298;2022-09-09T06:14:49;11.68;;;4.05;;
39140;SDS011;24875;48.436;10.298;2022-09-09T06:17:16;9.93;;;3.15;;
39140;SDS011;24875;48.436;10.298;2022-09-09T06:19:43;7.15;;;3.47;;
39140;SDS011;24875;48.436;10.298;2022-09-09T06:22:09;6.80;;;2.70;;
39140;SDS011;24875;48.436;10.298;2022-09-09T06:24:37;5.35;;;2.80;;
39140;SDS011;24875;48.436;10.298;2022-09-09T06:27:03;4.57;;;2.85;;
39140;SDS011;24875;48.436;10.298;2022-09-09T06:29:33;6.38;;;2.65;;
39140;SDS011;24875;48.436;10.298;2022-09-09T06:32:00;5.60;;;2.67;;
39140;SDS011;24875;48.436;10.298;2022-09-09T06:34:27;5.68;;;3.00;;
39140;SDS011;24875;48.436;10.298;2022-09-09T06:36:54;9.43;;;3.28;;
39140;SDS011;24875;48.436;10.298;2022-09-09T06:39:22;8.15;;;2.92;;
39140;SDS011;24875;48.436;10.298;2022-09-09T06:41:49;5.70;;;3.10;;
39140;SDS011;24875;48.436;10.298;2022-09-09T06:44:18;6.30;;;2.95;;
39140;SDS011;24875;48.436;10.298;2022-09-09T06:46:46;7.95;;;2.60;;
39140;SDS011;24875;48.436;10.298;2022-09-09T06:49:13;6.07;;;2.13;;
39140;SDS011;24875;48.436;10.298;2022-09-09T06:51:40;6.47;;;2.67;;
39140;SDS011;24875;48.436;10.298;2022-09-09T06:54:08;3.92;;;1.85;;
39140;SDS011;24875;48.436;10.298;2022-09-09T06:56:35;7.68;;;2.45;;
39140;SDS011;24875;48.436;10.298;2022-09-09T06:59:05;4.63;;;2.08;;
39140;SDS011;24875;48.436;10.298;2022-09-09T07:01:34;7.40;;;2.03;;
39140;SDS011;24875;48.436;10.298;2022-09-09T07:04:04;6.18;;;2.30;;
39140;SDS011;24875;48.436;10.298;2022-09-09T07:06:33;5.70;;;2.40;;
39140;SDS011;24875;48.436;10.298;2022-09-09T07:09:03;2.72;;;2.00;;
39140;SDS011;24875;48.436;10.298;2022-09-09T07:11:31;5.25;;;2.42;;
39140;SDS011;24875;48.436;10.298;2022-09-09T07:14:00;7.00;;;2.22;;
39140;SDS011;24875;48.436;10.298;2022-09-09T07:16:27;4.50;;;2.08;;
39140;SDS011;24875;48.436;10.298;2022-09-09T07:18:56;4.13;;;2.38;;
39140;SDS011;24875;48.436;10.298;2022-09-09T07:21:25;7.90;;;2.10;;
39140;SDS011;24875;48.436;10.298;2022-09-09T07:23:53;3.80;;;2.00;;
39140;SDS011;24875;48.436;10.298;2022-09-09T07:26:21;4.93;;;2.13;;
39140;SDS011;24875;48.436;10.298;2022-09-09T07:28:48;4.93;;;1.95;;
39140;SDS011;24875;48.436;10.298;2022-09-09T07:31:16;9.45;;;2.15;;
39140;SDS011;24875;48.436;10.298;2022-09-09T07:33:44;7.78;;;2.55;;
39140;SDS011;24875;48.436;10.298;2022-09-09T07:36:12;9.88;;;2.85;;
39140;SDS011;24875;48.436;10.298;2022-09-09T07:38:42;7.22;;;2.58;;
39140;SDS011;24875;48.436;10.298;2022-09-09T07:41:11;3.15;;;2.03;;
39140;SDS011;24875;48.436;10.298;2022-09-09T07:43:40;3.22;;;1.90;;
39140;SDS011;24875;48.436;10.298;2022-09-09T07:46:07;5.20;;;1.83;;
39140;SDS011;24875;48.436;10.298;2022-09-09T07:48:34;2.47;;;1.45;;
39140;SDS011;24875;48.436;10.298;2022-09-09T07:51:05;4.82;;;2.08;;
39140;SDS011;24875;48.436;10.298;2022-09-09T07:53:33;3.10;;;1.95;;
39140;SDS011;24875;48.436;10.298;2022-09-09T07:56:06;3.90;;;2.00;;
39140;SDS011;24875;48.436;10.298;2022-09-09T07:58:34;2.38;;;1.85;;
39140;SDS011;24875;48.436;10.298;2022-09-09T08:01:05;3.42;;;1.70;;
39140;SDS011;24875;48.436;10.298;2022-09-09T08:03:32;4.75;;;1.58;;
39140;SDS011;24875;48.436;10.298;2022-09-09T08:06:00;6.30;;;1.85;;
39140;SDS011;24875;48.436;10.298;2022-09-09T08:08:28;5.45;;;1.77;;
39140;SDS011;24875;48.436;10.298;2022-09-09T08:11:00;11.48;;;2.00;;
39140;SDS011;24875;48.436;10.298;2022-09-09T08:13:30;4.20;;;1.67;;
39140;SDS011;24875;48.436;10.298;2022-09-09T08:16:03;4.40;;;1.45;;
39140;SDS011;24875;48.436;10.298;2022-09-09T08:18:30;1.80;;;1.30;;
39140;SDS011;24875;48.436;10.298;2022-09-09T08:20:57;5.90;;;1.30;;
39140;SDS011;24875;48.436;10.298;2022-09-09T08:23:25;2.03;;;1.13;;
39140;SDS011;24875;48.436;10.298;2022-09-09T08:25:51;3.13;;;1.35;;
39140;SDS011;24875;48.436;10.298;2022-09-09T08:28:18;1.73;;;1.38;;
39140;SDS011;24875;48.436;10.298;2022-09-09T08:30:46;2.30;;;1.10;;
39140;SDS011;24875;48.436;10.298;2022-09-09T08:33:13;3.35;;;1.30;;
39140;SDS011;24875;48.436;10.298;2022-09-09T08:35:39;3.08;;;1.52;;
39140;SDS011;24875;48.436;10.298;2022-09-09T08:38:16;3.60;;;1.48;;
39140;SDS011;24875;48.436;10.298;2022-09-09T08:40:43;2.05;;;1.30;;
39140;SDS011;24875;48.436;10.298;2022-09-09T08:43:16;2.72;;;1.40;;
39140;SDS011;24875;48.436;10.298;2022-09-09T08:45:48;7.20;;;1.40;;
39140;SDS011;24875;48.436;10.298;2022-09-09T08:48:28;5.18;;;2.00;;
39140;SDS011;24875;48.436;10.298;2022-09-09T08:51:06;3.67;;;1.38;;
39140;SDS011;24875;48.436;10.298;2022-09-09T08:53:36;2.83;;;1.17;;
39140;SDS011;24875;48.436;10.298;2022-09-09T08:56:09;2.80;;;1.50;;
39140;SDS011;24875;48.436;10.298;2022-09-09T08:58:40;4.68;;;1.30;;
39140;SDS011;24875;48.436;10.298;2022-09-09T09:01:16;6.82;;;1.80;;
39140;SDS011;24875;48.436;10.298;2022-09-09T09:03:57;3.35;;;1.40;;
39140;SDS011;24875;48.436;10.298;2022-09-09T09:06:35;2.45;;;1.27;;
39140;SDS011;24875;48.436;10.298;2022-09-09T09:09:14;5.45;;;1.38;;
39140;SDS011;24875;48.436;10.298;2022-09-09T09:11:48;2.55;;;1.40;;
39140;SDS011;24875;48.436;10.298;2022-09-09T09:14:18;3.58;;;1.60;;
39140;SDS011;24875;48.436;10.298;2022-09-09T09:16:51;5.93;;;1.55;;
39140;SDS011;24875;48.436;10.298;2022-09-09T09:19:21;3.08;;;1.13;;
39140;SDS011;24875;48.436;10.298;2022-09-09T09:21:51;4.63;;;1.30;;
39140;SDS011;24875;48.436;10.298;2022-09-09T09:24:23;4.95;;;1.50;;
39140;SDS011;24875;48.436;10.298;2022-09-09T09:26:57;6.35;;;1.23;;
39140;SDS011;24875;48.436;10.298;2022-09-09T09:29:26;4.03;;;1.50;;
39140;SDS011;24875;48.436;10.298;2022-09-09T09:31:55;1.85;;;1.40;;
39140;SDS011;24875;48.436;10.298;2022-09-09T09:34:26;3.03;;;1.38;;
39140;SDS011;24875;48.436;10.298;2022-09-09T09:36:54;5.65;;;1.50;;
39140;SDS011;24875;48.436;10.298;2022-09-09T09:39:24;5.72;;;1.67;;
39140;SDS011;24875;48.436;10.298;2022-09-09T09:41:52;4.78;;;1.30;;
39140;SDS011;24875;48.436;10.298;2022-09-09T09:44:22;2.75;;;1.38;;
39140;SDS011;24875;48.436;10.298;2022-09-09T09:46:49;2.33;;;1.10;;
39140;SDS011;24875;48.436;10.298;2022-09-09T09:49:17;4.50;;;1.30;;
39140;SDS011;24875;48.436;10.298;2022-09-09T09:51:44;3.90;;;1.38;;
39140;SDS011;24875;48.436;10.298;2022-09-09T09:54:16;2.97;;;1.13;;
39140;SDS011;24875;48.436;10.298;2022-09-09T09:56:48;6.15;;;1.60;;
39140;SDS011;24875;48.436;10.298;2022-09-09T09:59:32;29.20;;;9.07;;
39140;SDS011;24875;48.436;10.298;2022-09-09T10:05:01;7.20;;;1.13;;
39140;SDS011;24875;48.436;10.298;2022-09-09T10:07:29;3.88;;;1.20;;
39140;SDS011;24875;48.436;10.298;2022-09-09T10:09:57;6.22;;;1.27;;
39140;SDS011;24875;48.436;10.298;2022-09-09T10:12:30;3.20;;;0.90;;
39140;SDS011;24875;48.436;10.298;2022-09-09T10:15:15;3.85;;;1.15;;
39140;SDS011;24875;48.436;10.298;2022-09-09T10:17:57;3.30;;;0.80;;
39140;SDS011;24875;48.436;10.298;2022-09-09T10:20:33;2.28;;;0.70;;
39140;SDS011;24875;48.436;10.298;2022-09-09T10:23:08;3.53;;;0.63;;
39140;SDS011;24875;48.436;10.298;2022-09-09T10:25:52;1.92;;;0.80;;
39140;SDS011;24875;48.436;10.298;2022-09-09T10:28:32;1.80;;;0.68;;
39140;SDS011;24875;48.436;10.298;2022-09-09T10:31:15;4.90;;;0.77;;
39140;SDS011;24875;48.436;10.298;2022-09-09T10:33:49;4.55;;;0.93;;
39140;SDS011;24875;48.436;10.298;2022-09-09T10:36:20;2.05;;;0.70;;
39140;SDS011;24875;48.436;10.298;2022-09-09T10:38:52;3.67;;;0.70;;
39140;SDS011;24875;48.436;10.298;2022-09-09T10:41:26;1.70;;;0.70;;
39140;SDS011;24875;48.436;10.298;2022-09-09T10:44:21;1.95;;;0.65;;
39140;SDS011;24875;48.436;10.298;2022-09-09T10:47:05;3.08;;;0.70;;
39140;SDS011;24875;48.436;10.298;2022-09-09T10:49:51;4.72;;;0.70;;
39140;SDS011;24875;48.436;10.298;2022-09-09T10:52:34;3.50;;;0.82;;
39140;SDS011;24875;48.436;10.298;2022-09-09T10:55:23;1.27;;;0.60;;
39140;SDS011;24875;48.436;10.298;2022-09-09T10:57:52;0.80;;;0.50;;
39140;SDS011;24875;48.436;10.298;2022-09-09T11:00:23;4.35;;;0.80;;
39140;SDS011;24875;48.436;10.298;2022-09-09T11:02:52;0.73;;;0.65;;
39140;SDS011;24875;48.436;10.298;2022-09-09T11:05:24;7.47;;;0.70;;
39140;SDS011;24875;48.436;10.298;2022-09-09T11:07:56;2.15;;;0.57;;
39140;SDS011;24875;48.436;10.298;2022-09-09T11:10:27;3.25;;;0.57;;
39140;SDS011;24875;48.436;10.298;2022-09-09T11:13:03;2.42;;;0.70;;
39140;SDS011;24875;48.436;10.298;2022-09-09T11:15:39;2.47;;;0.80;;
39140;SDS011;24875;48.436;10.298;2022-09-09T11:18:10;3.67;;;0.77;;
39140;SDS011;24875;48.436;10.298;2022-09-09T11:20:40;1.60;;;0.60;;
39140;SDS011;24875;48.436;10.298;2022-09-09T11:23:10;1.50;;;0.57;;
39140;SDS011;24875;48.436;10.298;2022-09-09T11:25:42;1.17;;;0.70;;
39140;SDS011;24875;48.436;10.298;2022-09-09T11:28:17;1.38;;;0.55;;
39140;SDS011;24875;48.436;10.298;2022-09-09T11:30:58;2.85;;;0.70;;
39140;SDS011;24875;48.436;10.298;2022-09-09T11:33:49;1.90;;;0.65;;
39140;SDS011;24875;48.436;10.298;2022-09-09T11:36:29;1.15;;;0.60;;
39140;SDS011;24875;48.436;10.298;2022-09-09T11:39:38;1.58;;;0.50;;
39140;SDS011;24875;48.436;10.298;2022-09-09T11:42:17;0.93;;;0.60;;
39140;SDS011;24875;48.436;10.298;2022-09-09T11:44:46;0.57;;;0.43;;
39140;SDS011;24875;48.436;10.298;2022-09-09T11:47:18;1.85;;;0.60;;
39140;SDS011;24875;48.436;10.298;2022-09-09T11:49:49;2.25;;;0.60;;
39140;SDS011;24875;48.436;10.298;2022-09-09T11:52:20;2.53;;;0.80;;
39140;SDS011;24875;48.436;10.298;2022-09-09T11:54:52;1.55;;;0.57;;
39140;SDS011;24875;48.436;10.298;2022-09-09T11:57:23;4.60;;;0.85;;
39140;SDS011;24875;48.436;10.298;2022-09-09T11:59:53;4.60;;;1.45;;
39140;SDS011;24875;48.436;10.298;2022-09-09T12:02:22;1.30;;;0.50;;
39140;SDS011;24875;48.436;10.298;2022-09-09T12:04:54;2.35;;;0.80;;
39140;SDS011;24875;48.436;10.298;2022-09-09T12:07:27;2.90;;;0.70;;
39140;SDS011;24875;48.436;10.298;2022-09-09T12:10:03;1.65;;;0.68;;
39140;SDS011;24875;48.436;10.298;2022-09-09T12:12:33;1.92;;;0.50;;
39140;SDS011;24875;48.436;10.298;2022-09-09T12:15:03;1.42;;;0.60;;
39140;SDS011;24875;48.436;10.298;2022-09-09T12:17:46;1.75;;;0.57;;
39140;SDS011;24875;48.436;10.298;2022-09-09T12:20:16;4.85;;;0.52;;
39140;SDS011;24875;48.436;10.298;2022-09-09T12:22:57;1.90;;;0.60;;
39140;SDS011;24875;48.436;10.298;2022-09-09T12:25:35;0.57;;;0.40;;
39140;SDS011;24875;48.436;10.298;2022-09-09T12:28:15;2.70;;;0.95;;
39140;SDS011;24875;48.436;10.298;2022-09-09T12:30:46;2.55;;;0.65;;
39140;SDS011;24875;48.436;10.298;2022-09-09T12:33:19;3.25;;;0.70;;
39140;SDS011;24875;48.436;10.298;2022-09-09T12:35:49;1.27;;;0.63;;
39140;SDS011;24875;48.436;10.298;2022-09-09T12:38:22;1.15;;;0.63;;
39140;SDS011;24875;48.436;10.298;2022-09-09T12:40:57;3.75;;;0.80;;
39140;SDS011;24875;48.436;10.298;2022-09-09T12:43:25;0.82;;;0.40;;
39140;SDS011;24875;48.436;10.298;2022-09-09T12:45:54;2.28;;;0.60;;
39140;SDS011;24875;48.436;10.298;2022-09-09T12:48:27;2.55;;;0.60;;
39140;SDS011;24875;48.436;10.298;2022-09-09T12:50:58;2.53;;;0.50;;
39140;SDS011;24875;48.436;10.298;2022-09-09T12:53:26;1.73;;;0.60;;
39140;SDS011;24875;48.436;10.298;2022-09-09T12:55:56;1.45;;;0.77;;
39140;SDS011;24875;48.436;10.298;2022-09-09T12:58:25;5.53;;;0.70;;
39140;SDS011;24875;48.436;10.298;2022-09-09T13:00:58;0.65;;;0.52;;
39140;SDS011;24875;48.436;10.298;2022-09-09T13:03:25;2.63;;;0.68;;
39140;SDS011;24875;48.436;10.298;2022-09-09T13:05:53;1.05;;;0.40;;
39140;SDS011;24875;48.436;10.298;2022-09-09T13:08:25;0.65;;;0.43;;
39140;SDS011;24875;48.436;10.298;2022-09-09T13:10:53;1.27;;;0.50;;
39140;SDS011;24875;48.436;10.298;2022-09-09T13:13:26;1.75;;;0.50;;
39140;SDS011;24875;48.436;10.298;2022-09-09T13:15:55;1.30;;;0.50;;
39140;SDS011;24875;48.436;10.298;2022-09-09T13:18:23;3.22;;;0.45;;
39140;SDS011;24875;48.436;10.298;2022-09-09T13:20:53;0.70;;;0.40;;
39140;SDS011;24875;48.436;10.298;2022-09-09T13:23:22;0.52;;;0.40;;
39140;SDS011;24875;48.436;10.298;2022-09-09T13:25:53;1.67;;;0.60;;
39140;SDS011;24875;48.436;10.298;2022-09-09T13:28:21;1.35;;;0.70;;
39140;SDS011;24875;48.436;10.298;2022-09-09T13:30:57;1.00;;;0.60;;
39140;SDS011;24875;48.436;10.298;2022-09-09T13:33:31;2.03;;;0.68;;
39140;SDS011;24875;48.436;10.298;2022-09-09T13:35:59;1.00;;;0.70;;
39140;SDS011;24875;48.436;10.298;2022-09-09T13:38:30;1.25;;;0.60;;
39140;SDS011;24875;48.436;10.298;2022-09-09T13:40:59;4.18;;;0.70;;
39140;SDS011;24875;48.436;10.298;2022-09-09T13:43:29;0.63;;;0.50;;
39140;SDS011;24875;48.436;10.298;2022-09-09T13:46:01;3.28;;;0.70;;
39140;SDS011;24875;48.436;10.298;2022-09-09T13:48:54;0.82;;;0.63;;
39140;SDS011;24875;48.436;10.298;2022-09-09T13:51:28;3.95;;;0.80;;
39140;SDS011;24875;48.436;10.298;2022-09-09T13:53:59;3.38;;;0.57;;
39140;SDS011;24875;48.436;10.298;2022-09-09T13:56:25;2.67;;;0.80;;
39140;SDS011;24875;48.436;10.298;2022-09-09T13:58:52;1.63;;;0.60;;
39140;SDS011;24875;48.436;10.298;2022-09-09T14:01:18;2.13;;;0.50;;
39140;SDS011;24875;48.436;10.298;2022-09-09T14:03:45;3.78;;;0.63;;
39140;SDS011;24875;48.436;10.298;2022-09-09T14:06:13;2.97;;;0.80;;
39140;SDS011;24875;48.436;10.298;2022-09-09T14:08:39;2.67;;;0.70;;
39140;SDS011;24875;48.436;10.298;2022-09-09T14:11:07;1.88;;;0.80;;
39140;SDS011;24875;48.436;10.298;2022-09-09T14:13:38;1.95;;;0.60;;
39140;SDS011;24875;48.436;10.298;2022-09-09T14:16:04;2.97;;;0.80;;
39140;SDS011;24875;48.436;10.298;2022-09-09T14:18:31;3.50;;;0.80;;
39140;SDS011;24875;48.436;10.298;2022-09-09T14:20:58;3.90;;;0.93;;
39140;SDS011;24875;48.436;10.298;2022-09-09T14:23:26;0.40;;;0.38;;
39140;SDS011;24875;48.436;10.298;2022-09-09T14:25:54;3.15;;;0.60;;
39140;SDS011;24875;48.436;10.298;2022-09-09T14:28:21;2.47;;;0.80;;
39140;SDS011;24875;48.436;10.298;2022-09-09T14:30:48;3.10;;;0.60;;
39140;SDS011;24875;48.436;10.298;2022-09-09T14:33:15;0.95;;;0.70;;
39140;SDS011;24875;48.436;10.298;2022-09-09T14:35:42;5.03;;;0.90;;
39140;SDS011;24875;48.436;10.298;2022-09-09T14:38:09;1.38;;;0.80;;
39140;SDS011;24875;48.436;10.298;2022-09-09T14:40:37;1.15;;;0.60;;
39140;SDS011;24875;48.436;10.298;2022-09-09T14:43:04;3.00;;;0.75;;
39140;SDS011;24875;48.436;10.298;2022-09-09T14:45:31;2.03;;;0.60;;
39140;SDS011;24875;48.436;10.298;2022-09-09T14:47:57;1.75;;;0.75;;
39140;SDS011;24875;48.436;10.298;2022-09-09T14:50:24;2.05;;;0.57;;
39140;SDS011;24875;48.436;10.298;2022-09-09T14:52:51;2.83;;;0.60;;
39140;SDS011;24875;48.436;10.298;2022-09-09T14:55:17;2.83;;;0.70;;
39140;SDS011;24875;48.436;10.298;2022-09-09T14:57:45;2.33;;;0.60;;
39140;SDS011;24875;48.436;10.298;2022-09-09T15:00:12;2.30;;;0.55;;